createdAt,value
2022-12-31T00:01:58.918Z,23.90
2022-12-31T00:04:34.990Z,23.70
2022-12-31T00:09:47.369Z,23.50
2022-12-31T00:12:50.492Z,23.80
2022-12-31T00:15:29.090Z,23.80
2022-12-31T00:18:07.899Z,23.90
2022-12-31T00:20:46.932Z,23.80
2022-12-31T00:23:22.902Z,23.80
2022-12-31T00:25:59.021Z,23.90
2022-12-31T00:28:52.035Z,23.80
2022-12-31T00:34:09.363Z,23.90
2022-12-31T00:36:47.761Z,24.00
2022-12-31T00:39:23.715Z,24.20
2022-12-31T00:41:59.517Z,24.30
2022-12-31T00:44:37.547Z,24.30
2022-12-31T00:47:13.207Z,24.20
2022-12-31T00:49:49.008Z,24.20
2022-12-31T00:52:26.482Z,24.40
2022-12-31T00:55:02.924Z,24.30
2022-12-31T00:57:38.251Z,24.40
2022-12-31T01:00:17.106Z,24.40
2022-12-31T01:05:34.846Z,24.40
2022-12-31T01:08:10.523Z,24.50
2022-12-31T01:11:02.060Z,24.40
2022-12-31T01:13:37.899Z,24.50
2022-12-31T01:16:17.715Z,24.60
2022-12-31T01:18:56.142Z,24.60
2022-12-31T01:21:31.968Z,24.70
2022-12-31T01:24:09.169Z,24.70
2022-12-31T01:26:46.596Z,24.70
2022-12-31T01:29:22.382Z,24.60
2022-12-31T01:31:59.780Z,24.70
2022-12-31T01:34:35.883Z,24.80
2022-12-31T01:37:14.797Z,24.90
2022-12-31T01:39:50.309Z,25.00
2022-12-31T01:42:26.105Z,25.00
2022-12-31T01:45:02.079Z,24.80
2022-12-31T01:47:49.012Z,24.90
2022-12-31T01:50:28.766Z,25.00
2022-12-31T01:53:06.845Z,25.00
2022-12-31T01:55:51.189Z,25.10
2022-12-31T01:58:29.903Z,25.10
2022-12-31T02:01:05.438Z,25.00
2022-12-31T02:03:43.646Z,24.90
2022-12-31T02:06:25.191Z,24.80
2022-12-31T02:09:02.867Z,24.80
2022-12-31T02:11:39.944Z,24.70
2022-12-31T02:14:19.394Z,24.70
2022-12-31T02:17:00.999Z,24.60
2022-12-31T02:20:00.767Z,24.60
2022-12-31T02:22:50.930Z,24.30
2022-12-31T02:25:59.484Z,24.30
2022-12-31T02:28:55.897Z,24.40
2022-12-31T02:31:38.311Z,24.50
2022-12-31T02:34:19.416Z,24.50
2022-12-31T02:39:35.059Z,24.50
2022-12-31T02:44:48.818Z,24.30
2022-12-31T02:47:35.704Z,24.50
2022-12-31T02:50:31.355Z,24.60
2022-12-31T02:53:23.266Z,24.60
2022-12-31T02:56:05.717Z,24.70
2022-12-31T02:58:59.847Z,24.70
2022-12-31T03:04:39.022Z,24.40
2022-12-31T04:18:14.383Z,23.80
2022-12-31T04:21:02.502Z,23.80
2022-12-31T04:23:56.181Z,23.80
2022-12-31T04:26:44.890Z,23.80
2022-12-31T04:29:28.398Z,23.80
2022-12-31T04:32:19.896Z,23.90
2022-12-31T04:35:08.505Z,23.90
2022-12-31T04:37:52.327Z,23.80
2022-12-31T04:40:35.392Z,23.80
2022-12-31T04:43:13.676Z,23.80
2022-12-31T04:54:00.430Z,23.90
2022-12-31T04:59:42.146Z,23.80
2022-12-31T05:05:02.312Z,23.70
2022-12-31T05:07:42.356Z,24.00
2022-12-31T05:10:18.205Z,23.90
2022-12-31T05:18:19.134Z,24.00
2022-12-31T05:21:02.665Z,24.00
2022-12-31T05:32:01.894Z,24.10
2022-12-31T05:40:28.403Z,24.10
2022-12-31T05:43:12.219Z,24.20
2022-12-31T05:48:43.295Z,24.00
2022-12-31T05:51:38.510Z,24.10
2022-12-31T05:56:59.697Z,24.10
2022-12-31T05:59:35.336Z,24.10
2022-12-31T06:17:50.881Z,25.00
2022-12-31T06:23:03.233Z,23.70
2022-12-31T06:25:41.116Z,23.80
2022-12-31T06:28:20.541Z,23.90
2022-12-31T06:31:03.291Z,23.80
2022-12-31T06:33:43.707Z,23.80
2022-12-31T06:36:20.808Z,23.80
2022-12-31T06:38:57.090Z,23.90
2022-12-31T06:41:33.270Z,23.90
2022-12-31T06:44:08.660Z,23.90
2022-12-31T06:46:44.592Z,23.90
2022-12-31T06:49:26.039Z,23.90
2022-12-31T06:52:01.551Z,23.90
2022-12-31T06:57:13.747Z,23.70
2022-12-31T07:05:31.780Z,23.70
2022-12-31T07:59:12.775Z,23.30
2022-12-31T08:01:53.924Z,23.50
2022-12-31T08:20:27.639Z,23.60
2022-12-31T08:23:27.596Z,23.50
2022-12-31T08:52:36.087Z,23.30
2022-12-31T08:55:12.358Z,23.30
2022-12-31T09:00:31.027Z,23.30
2022-12-31T09:11:23.726Z,23.30
2022-12-31T09:14:25.113Z,23.30
2022-12-31T09:17:07.942Z,23.20
2022-12-31T09:30:11.970Z,23.30
2022-12-31T09:52:34.146Z,23.10
2022-12-31T09:55:32.050Z,23.30
2022-12-31T11:14:34.091Z,23.10
2022-12-31T11:17:36.938Z,23.10
2022-12-31T11:31:23.841Z,23.10
2022-12-31T11:34:14.199Z,23.20
2022-12-31T11:50:53.331Z,23.00
2022-12-31T11:53:51.985Z,23.20
2022-12-31T11:56:33.595Z,23.20
2022-12-31T12:02:05.160Z,23.10
2022-12-31T12:28:25.907Z,23.00
2022-12-31T12:31:06.360Z,23.10
2022-12-31T12:39:10.387Z,23.00
2022-12-31T13:54:03.484Z,23.00
2022-12-31T13:56:43.579Z,23.10
2022-12-31T13:59:23.605Z,23.00
2022-12-31T14:02:05.353Z,23.00
2022-12-31T14:04:47.021Z,23.10
2022-12-31T14:07:34.135Z,23.00
2022-12-31T14:10:19.665Z,23.00
2022-12-31T14:13:04.791Z,22.90
2022-12-31T14:15:45.909Z,23.00
2022-12-31T14:18:27.638Z,23.00
2022-12-31T14:21:08.050Z,23.00
2022-12-31T14:23:50.788Z,23.00
2022-12-31T14:26:34.932Z,23.00
2022-12-31T14:29:21.681Z,23.00
2022-12-31T14:32:19.837Z,23.00
2022-12-31T14:35:04.704Z,23.00
2022-12-31T14:43:14.670Z,23.00
2022-12-31T14:46:00.324Z,23.00
2022-12-31T14:48:48.483Z,23.00
2022-12-31T14:51:24.127Z,23.00
2022-12-31T14:54:00.754Z,23.00
2022-12-31T15:32:27.769Z,22.80
2022-12-31T15:35:29.837Z,22.70
2022-12-31T16:09:46.775Z,22.10
2022-12-31T16:12:32.760Z,22.10
2022-12-31T16:15:11.029Z,22.10
2022-12-31T16:17:47.021Z,22.00
2022-12-31T16:20:29.728Z,22.00
2022-12-31T16:23:19.497Z,22.00
2022-12-31T16:25:56.440Z,22.00
2022-12-31T16:28:35.938Z,21.90
2022-12-31T16:31:18.394Z,21.90
2022-12-31T16:33:54.805Z,21.90
2022-12-31T16:36:30.724Z,21.90
2022-12-31T16:39:28.695Z,21.80
2022-12-31T16:42:24.440Z,21.80
2022-12-31T16:45:00.809Z,21.80
2022-12-31T16:47:41.059Z,21.80
2022-12-31T16:50:21.581Z,21.80
2022-12-31T16:53:03.136Z,21.80
2022-12-31T16:55:41.033Z,21.70
2022-12-31T16:58:23.033Z,21.80
2022-12-31T17:00:59.737Z,21.70
2022-12-31T17:03:36.376Z,21.80
2022-12-31T17:06:19.710Z,21.70
2022-12-31T17:09:22.447Z,21.70
2022-12-31T17:12:12.272Z,21.70
2022-12-31T17:14:56.398Z,21.70
2022-12-31T17:17:37.893Z,21.60
2022-12-31T17:20:24.133Z,21.70
2022-12-31T17:23:02.606Z,21.60
2022-12-31T17:25:40.482Z,21.60
2022-12-31T17:28:27.747Z,21.60
2022-12-31T17:31:06.203Z,21.70
2022-12-31T17:33:41.740Z,21.60
2022-12-31T17:36:27.100Z,21.60
2022-12-31T17:39:21.516Z,21.60
2022-12-31T17:42:00.120Z,21.60
2022-12-31T17:44:39.229Z,21.60
2022-12-31T17:47:17.720Z,21.60
2022-12-31T17:49:54.121Z,21.60
2022-12-31T17:52:30.098Z,21.60
2022-12-31T17:55:05.570Z,21.60
2022-12-31T17:57:41.762Z,21.60
2022-12-31T18:00:24.764Z,21.60
2022-12-31T18:03:00.376Z,21.60
2022-12-31T18:05:36.434Z,21.60
2022-12-31T18:08:12.171Z,21.60
2022-12-31T18:10:49.754Z,21.60
2022-12-31T18:13:27.768Z,21.70
2022-12-31T18:16:05.249Z,21.60
2022-12-31T18:18:41.787Z,21.60
2022-12-31T18:21:24.788Z,21.60
2022-12-31T18:26:37.006Z,21.70
2022-12-31T18:29:20.252Z,21.70
2022-12-31T18:31:58.343Z,21.70
2022-12-31T18:34:33.976Z,21.70
2022-12-31T18:37:21.455Z,21.70
2022-12-31T18:39:57.692Z,21.60
2022-12-31T18:42:34.867Z,21.70
2022-12-31T18:45:17.428Z,21.80
2022-12-31T18:47:55.725Z,21.80
2022-12-31T18:50:31.376Z,21.80
2022-12-31T18:53:08.144Z,21.70
2022-12-31T18:55:45.055Z,21.90
2022-12-31T18:58:21.124Z,21.80
2022-12-31T19:00:57.013Z,21.80
2022-12-31T19:03:34.875Z,21.80
2022-12-31T19:06:10.552Z,21.90
2022-12-31T19:08:47.213Z,21.90
2022-12-31T19:11:23.135Z,21.90
2022-12-31T19:13:59.057Z,22.00
2022-12-31T19:16:34.787Z,21.90
2022-12-31T19:19:12.618Z,22.00
2022-12-31T19:21:49.040Z,22.00
2022-12-31T19:24:28.346Z,22.10
2022-12-31T19:27:04.933Z,22.20
2022-12-31T19:29:40.733Z,22.20
2022-12-31T19:32:16.527Z,22.30
2022-12-31T19:34:55.492Z,22.40
2022-12-31T19:37:31.068Z,22.50
2022-12-31T19:42:43.813Z,22.60
2022-12-31T20:19:13.582Z,23.00
2022-12-31T20:21:51.391Z,23.10
2022-12-31T20:24:27.183Z,23.10
2022-12-31T20:29:38.461Z,23.20
2022-12-31T20:32:14.474Z,23.40
2022-12-31T20:34:50.397Z,23.40
2022-12-31T20:37:27.991Z,23.40
2022-12-31T20:42:41.912Z,23.30
2022-12-31T20:45:17.749Z,23.40
2022-12-31T20:58:19.527Z,23.40
2022-12-31T21:00:56.670Z,23.60
2022-12-31T21:06:28.237Z,23.70
2022-12-31T21:09:07.507Z,23.80
2022-12-31T21:11:58.814Z,23.90
2022-12-31T21:14:37.475Z,24.00
2022-12-31T21:17:16.815Z,24.00
2022-12-31T21:19:52.881Z,24.10
2022-12-31T21:22:28.433Z,24.00
2022-12-31T21:25:06.584Z,23.90
2022-12-31T21:27:42.342Z,23.80
2022-12-31T21:30:20.174Z,23.80
2022-12-31T21:32:55.956Z,23.80
2022-12-31T21:35:53.301Z,23.80
2022-12-31T21:38:27.511Z,23.80
2022-12-31T21:41:07.614Z,23.80
2022-12-31T21:43:42.909Z,23.90
2022-12-31T21:46:19.686Z,24.00
2022-12-31T21:48:59.965Z,24.00
2022-12-31T21:51:56.607Z,24.10
2022-12-31T21:54:48.005Z,24.20
2022-12-31T21:57:26.074Z,24.20
2022-12-31T22:00:41.117Z,24.20
2022-12-31T22:03:27.957Z,24.20
2022-12-31T22:06:07.450Z,24.20
2022-12-31T22:08:47.408Z,24.30
2022-12-31T22:11:23.917Z,24.40
2022-12-31T22:14:02.314Z,24.50
2022-12-31T22:16:37.848Z,24.50
2022-12-31T22:19:13.777Z,24.50
2022-12-31T22:21:49.300Z,24.50
2022-12-31T22:24:26.642Z,24.50
2022-12-31T22:27:28.797Z,24.50
2022-12-31T22:30:00.915Z,24.50
2022-12-31T22:32:36.968Z,24.50
2022-12-31T22:35:13.427Z,24.60
2022-12-31T22:38:00.890Z,24.70
2022-12-31T22:40:42.710Z,24.70
2022-12-31T22:43:26.199Z,24.70
2022-12-31T22:46:12.964Z,24.80
2022-12-31T22:48:48.656Z,24.80
2022-12-31T22:51:56.582Z,24.80
2022-12-31T22:54:29.133Z,24.80
2022-12-31T22:57:06.235Z,24.90
2022-12-31T22:59:48.727Z,24.80
2022-12-31T23:02:29.151Z,24.80
2022-12-31T23:05:14.783Z,24.80
2022-12-31T23:07:51.334Z,24.80
2022-12-31T23:10:45.232Z,24.90
2022-12-31T23:13:37.398Z,24.80
2022-12-31T23:16:29.333Z,24.80
2022-12-31T23:19:23.195Z,24.80
2022-12-31T23:22:19.066Z,24.80
2022-12-31T23:25:02.698Z,24.80
2022-12-31T23:27:41.920Z,24.80
2022-12-31T23:30:19.115Z,24.80
2022-12-31T23:32:57.317Z,24.90
2022-12-31T23:35:37.599Z,24.90
2022-12-31T23:38:13.377Z,24.90
2022-12-31T23:40:49.721Z,25.00
2022-12-31T23:43:29.180Z,24.90
2022-12-31T23:46:05.856Z,24.90
2022-12-31T23:48:41.551Z,24.90
2022-12-31T23:51:19.381Z,25.00
2022-12-31T23:53:55.503Z,25.00
2022-12-31T23:56:31.552Z,25.00
2022-12-31T23:59:07.173Z,25.00
